Terminal Aerodrome Forecast
Issued by NWS

Home | Current Version | Previous Version | Text Only | Print | Product List | Glossary On
Versions: 1 2 3 4 5 6 7 8 9 10 11 12 13 14 15 16 17 18 19 20 21 22 23 24 25 26 27 28 29 30 31 32
000
FTUS43 KGRB 181100
TAFRHI
TAF
KRHI 181128Z 1812/1912 07004KT P6SM OVC005
     FM181600 11006KT P6SM BKN012
     FM181900 12005KT P6SM BKN025
     FM182100 14003KT P6SM SCT030
     FM190300 13003KT P6SM BKN020=

USA.gov is the U.S. government's official web portal to all federal, state and local government web resources and services.